createdAt,value
2023-05-22T00:01:15.038Z,35.60
2023-05-22T00:03:42.078Z,35.70
2023-05-22T00:06:10.270Z,36.70
2023-05-22T00:08:37.327Z,37.70
2023-05-22T00:11:05.081Z,39.10
2023-05-22T00:13:32.231Z,40.30
2023-05-22T00:15:59.369Z,42.70
2023-05-22T00:18:27.346Z,42.70
2023-05-22T00:20:54.428Z,42.80
2023-05-22T00:23:22.082Z,42.80
2023-05-22T00:25:50.758Z,42.50
2023-05-22T00:28:17.830Z,42.90
2023-05-22T00:30:46.008Z,43.00
2023-05-22T00:33:13.216Z,42.40
2023-05-22T00:35:40.197Z,43.00
2023-05-22T00:38:08.046Z,44.00
2023-05-22T00:40:35.244Z,44.00
2023-05-22T00:43:08.473Z,44.90
2023-05-22T00:45:36.431Z,44.00
2023-05-22T00:48:03.517Z,45.00
2023-05-22T00:50:30.878Z,46.10
2023-05-22T00:52:57.956Z,45.80
2023-05-22T00:55:24.978Z,46.80
2023-05-22T00:57:52.686Z,47.00
2023-05-22T01:00:20.469Z,46.70
2023-05-22T01:02:47.966Z,47.40
2023-05-22T01:05:18.365Z,48.10
2023-05-22T01:07:48.969Z,47.90
2023-05-22T01:10:16.220Z,49.90
2023-05-22T01:13:17.473Z,49.40
2023-05-22T01:16:02.381Z,50.70
2023-05-22T01:18:41.855Z,50.70
2023-05-22T01:21:30.271Z,50.70
2023-05-22T01:24:16.852Z,51.10
2023-05-22T01:26:46.988Z,51.10
2023-05-22T01:29:38.671Z,53.00
2023-05-22T01:32:07.596Z,53.30
2023-05-22T01:34:37.277Z,54.00
2023-05-22T01:37:05.426Z,54.60
2023-05-22T01:39:33.303Z,55.00
2023-05-22T01:42:00.667Z,55.80
2023-05-22T01:44:28.035Z,57.20
2023-05-22T01:46:59.125Z,56.60
2023-05-22T01:49:27.982Z,57.20
2023-05-22T01:52:03.709Z,59.10
2023-05-22T01:54:39.256Z,61.80
2023-05-22T01:57:14.467Z,61.80
2023-05-22T01:59:47.573Z,63.60
2023-05-22T02:02:18.049Z,63.30
2023-05-22T02:05:00.776Z,64.40
2023-05-22T02:07:28.611Z,64.40
2023-05-22T02:09:57.921Z,65.20
2023-05-22T02:12:25.743Z,66.90
2023-05-22T02:14:52.935Z,65.00
2023-05-22T02:17:22.262Z,64.60
2023-05-22T02:19:49.367Z,66.10
2023-05-22T02:22:16.473Z,64.50
2023-05-22T02:24:50.686Z,66.00
2023-05-22T02:27:17.843Z,66.00
2023-05-22T02:29:44.821Z,68.10
2023-05-22T02:32:11.882Z,70.00
2023-05-22T02:34:38.951Z,70.10
2023-05-22T02:37:06.118Z,70.70
2023-05-22T02:39:33.314Z,71.20
2023-05-22T02:42:00.834Z,70.50
2023-05-22T02:44:31.212Z,68.40
2023-05-22T02:46:59.512Z,67.60
2023-05-22T02:49:26.529Z,68.30
2023-05-22T02:51:53.645Z,68.40
2023-05-22T02:54:20.848Z,69.00
2023-05-22T02:56:47.932Z,70.00
2023-05-22T02:59:16.552Z,69.80
2023-05-22T03:01:44.479Z,68.70
2023-05-22T03:04:13.952Z,71.10
2023-05-22T03:06:41.857Z,71.50
2023-05-22T03:09:09.035Z,71.60
2023-05-22T03:11:35.998Z,70.70
2023-05-22T03:14:03.729Z,71.20
2023-05-22T03:16:32.944Z,73.40
2023-05-22T03:19:13.968Z,73.30
2023-05-22T03:21:41.534Z,73.30
2023-05-22T03:24:08.697Z,74.70
2023-05-22T03:26:35.947Z,74.60
2023-05-22T03:29:06.556Z,75.20
2023-05-22T03:31:34.855Z,75.70
2023-05-22T03:34:07.776Z,76.00
2023-05-22T03:36:37.187Z,76.50
2023-05-22T03:39:05.510Z,78.10
2023-05-22T03:41:37.242Z,76.60
2023-05-22T03:44:05.833Z,77.70
2023-05-22T03:46:33.830Z,77.20
2023-05-22T03:49:02.085Z,77.50
2023-05-22T03:51:29.096Z,75.90
2023-05-22T03:53:56.238Z,75.40
2023-05-22T03:56:23.254Z,76.20
2023-05-22T03:58:50.620Z,75.70
2023-05-22T04:01:18.142Z,76.10
2023-05-22T04:03:45.251Z,77.60
2023-05-22T04:06:13.868Z,77.80
2023-05-22T04:08:41.210Z,76.70
2023-05-22T04:11:08.381Z,76.70
2023-05-22T04:13:35.512Z,77.10
2023-05-22T04:16:04.309Z,78.80
2023-05-22T04:18:31.427Z,78.60
2023-05-22T04:20:58.481Z,77.90
2023-05-22T04:23:25.637Z,79.40
2023-05-22T04:25:52.907Z,79.20
2023-05-22T04:28:23.245Z,79.30
2023-05-22T04:30:50.408Z,79.40
2023-05-22T04:33:19.369Z,79.50
2023-05-22T04:35:46.443Z,77.30
2023-05-22T04:38:13.465Z,79.50
2023-05-22T04:40:40.683Z,77.80
2023-05-22T04:43:08.634Z,77.00
2023-05-22T04:45:35.694Z,77.60
2023-05-22T04:48:03.222Z,78.90
2023-05-22T04:50:36.137Z,79.50
2023-05-22T04:53:06.447Z,79.50
2023-05-22T04:55:37.065Z,79.50
2023-05-22T04:58:05.966Z,79.90
2023-05-22T05:00:33.300Z,79.50
2023-05-22T05:03:00.666Z,79.00
2023-05-22T05:05:28.010Z,79.60
2023-05-22T05:07:56.332Z,78.20
2023-05-22T05:10:23.818Z,78.80
2023-05-22T05:12:51.351Z,77.10
2023-05-22T05:15:18.912Z,77.50
2023-05-22T05:17:46.643Z,77.80
2023-05-22T05:20:14.699Z,77.50
2023-05-22T05:22:44.008Z,78.30
2023-05-22T05:25:13.181Z,78.50
2023-05-22T05:27:40.709Z,78.40
2023-05-22T05:30:09.471Z,77.90
2023-05-22T05:33:02.232Z,77.20
2023-05-22T05:35:39.599Z,79.10
2023-05-22T05:38:10.042Z,79.60
2023-05-22T05:40:39.952Z,78.40
2023-05-22T05:43:09.263Z,79.20
2023-05-22T05:45:36.760Z,77.00
2023-05-22T05:48:06.502Z,76.60
2023-05-22T05:50:35.892Z,74.90
2023-05-22T05:53:03.375Z,76.60
2023-05-22T05:55:32.720Z,75.90
2023-05-22T05:58:03.540Z,75.40
2023-05-22T06:00:50.850Z,75.30
2023-05-22T06:03:18.061Z,75.20
2023-05-22T06:05:54.070Z,74.80
2023-05-22T06:08:27.145Z,73.20
2023-05-22T06:10:54.632Z,73.10
2023-05-22T06:13:33.548Z,75.00
2023-05-22T06:16:06.433Z,74.60
2023-05-22T06:18:34.746Z,73.80
2023-05-22T06:21:02.005Z,73.50
2023-05-22T06:23:29.058Z,74.70
2023-05-22T06:25:57.424Z,74.00
2023-05-22T06:28:25.820Z,73.10
2023-05-22T06:30:53.000Z,74.40
2023-05-22T06:33:22.955Z,73.00
2023-05-22T06:35:50.573Z,71.70
2023-05-22T06:38:17.843Z,72.70
2023-05-22T06:40:45.245Z,72.80
2023-05-22T06:43:21.762Z,72.80
2023-05-22T06:45:56.228Z,71.90
2023-05-22T06:48:23.324Z,70.80
2023-05-22T06:50:59.520Z,71.70
2023-05-22T06:53:27.050Z,72.60
2023-05-22T06:55:54.842Z,71.70
2023-05-22T06:58:32.205Z,72.80
2023-05-22T07:01:00.826Z,70.40
2023-05-22T07:03:34.929Z,69.80
2023-05-22T07:06:20.474Z,71.40
2023-05-22T07:08:47.930Z,67.90
2023-05-22T07:11:14.873Z,70.30
2023-05-22T07:13:41.984Z,68.70
2023-05-22T07:16:09.095Z,67.90
2023-05-22T07:18:36.466Z,66.40
2023-05-22T07:21:03.602Z,65.70
2023-05-22T07:23:30.674Z,65.50
2023-05-22T07:25:57.930Z,65.50
2023-05-22T07:28:31.136Z,62.70
2023-05-22T07:31:07.768Z,62.30
2023-05-22T07:33:34.982Z,59.10
2023-05-22T07:36:02.097Z,59.50
2023-05-22T07:38:29.241Z,61.20
2023-05-22T07:41:00.346Z,59.00
2023-05-22T07:43:28.986Z,60.30
2023-05-22T07:45:57.397Z,63.60
2023-05-22T07:48:28.470Z,65.40
2023-05-22T07:50:55.650Z,66.30
2023-05-22T07:53:23.235Z,65.40
2023-05-22T07:55:53.421Z,64.40
2023-05-22T07:58:21.050Z,64.10
2023-05-22T08:00:49.895Z,63.90
2023-05-22T08:03:18.022Z,65.40
2023-05-22T08:05:45.546Z,65.60
2023-05-22T08:08:12.814Z,65.70
2023-05-22T08:13:10.542Z,58.80
2023-05-22T08:15:37.579Z,62.10
2023-05-22T08:18:04.640Z,65.70
2023-05-22T08:20:31.730Z,62.40
2023-05-22T08:22:59.340Z,60.50
2023-05-22T08:25:26.324Z,58.30
2023-05-22T08:27:53.392Z,55.50
2023-05-22T08:30:20.612Z,54.50
2023-05-22T08:32:47.715Z,54.30
2023-05-22T08:35:14.826Z,53.70
2023-05-22T08:37:41.827Z,51.90
2023-05-22T08:40:14.785Z,51.90
2023-05-22T08:42:42.474Z,51.90
2023-05-22T08:45:09.890Z,52.60
2023-05-22T08:47:37.936Z,51.80
2023-05-22T08:50:05.289Z,52.00
2023-05-22T08:52:42.904Z,47.40
2023-05-22T08:55:10.890Z,48.90
2023-05-22T08:57:38.380Z,52.00
2023-05-22T09:00:07.905Z,49.60
2023-05-22T09:02:35.932Z,49.40
2023-05-22T09:05:05.379Z,45.60
2023-05-22T09:07:32.501Z,45.20
2023-05-22T09:09:59.483Z,46.10
2023-05-22T09:12:29.346Z,42.10
2023-05-22T09:14:58.749Z,39.90
2023-05-22T09:17:27.299Z,35.30
2023-05-22T09:19:54.676Z,36.20
2023-05-22T09:22:24.285Z,38.10
2023-05-22T09:24:52.058Z,32.30
2023-05-22T09:27:23.431Z,28.40
2023-05-22T09:29:59.294Z,33.30
2023-05-22T09:32:29.928Z,32.20
2023-05-22T09:35:04.175Z,26.40
2023-05-22T09:37:35.786Z,26.40
2023-05-22T09:40:07.577Z,23.50
2023-05-22T09:42:35.857Z,22.20
2023-05-22T09:45:08.204Z,21.30
2023-05-22T09:47:37.433Z,19.30
2023-05-22T09:50:07.270Z,17.60
2023-05-22T09:52:35.622Z,15.30
2023-05-22T09:55:07.332Z,13.60
2023-05-22T09:57:45.122Z,13.90
2023-05-22T10:00:15.703Z,13.10
2023-05-22T10:02:48.443Z,11.30
2023-05-22T10:05:24.947Z,11.20
2023-05-22T10:07:56.667Z,11.20
2023-05-22T10:10:25.455Z,11.50
2023-05-22T10:13:00.546Z,11.30
2023-05-22T10:15:28.489Z,11.30
2023-05-22T10:17:56.390Z,9.70
2023-05-22T10:20:24.328Z,8.80
2023-05-22T10:22:51.664Z,8.00
2023-05-22T10:25:18.676Z,6.30
2023-05-22T10:27:46.288Z,7.40
2023-05-22T10:30:40.244Z,8.60
2023-05-22T10:33:41.014Z,6.90
2023-05-22T10:36:12.792Z,5.60
2023-05-22T10:38:46.042Z,7.70
2023-05-22T10:41:13.951Z,5.50
2023-05-22T10:43:43.132Z,3.30
2023-05-22T10:46:17.037Z,3.50
2023-05-22T10:48:49.709Z,4.40
2023-05-22T10:51:23.836Z,3.10
2023-05-22T10:53:59.141Z,2.40
2023-05-22T10:56:34.406Z,2.40
2023-05-22T10:59:05.022Z,1.10
2023-05-22T11:01:37.862Z,1.10
2023-05-22T11:04:16.067Z,1.00
2023-05-22T11:07:04.189Z,1.00
2023-05-22T11:09:31.420Z,1.00
2023-05-22T11:12:21.213Z,1.00
2023-05-22T11:14:49.006Z,1.00
2023-05-22T11:17:23.199Z,1.00
2023-05-22T11:20:07.451Z,1.00
2023-05-22T11:22:42.421Z,1.00
2023-05-22T11:25:17.871Z,1.00
2023-05-22T11:27:46.585Z,1.00
2023-05-22T11:30:15.062Z,1.00
2023-05-22T11:32:47.100Z,1.00
2023-05-22T11:35:19.385Z,1.00
2023-05-22T11:37:47.373Z,1.00
2023-05-22T11:40:17.132Z,1.00
2023-05-22T11:42:44.554Z,1.00
2023-05-22T11:45:12.073Z,1.00
2023-05-22T11:47:39.900Z,1.00
2023-05-22T11:50:10.399Z,1.00
2023-05-22T11:52:40.414Z,1.00
2023-05-22T11:55:08.737Z,1.00
2023-05-22T11:57:36.967Z,1.00
2023-05-22T12:00:08.904Z,1.00
2023-05-22T12:02:39.425Z,1.00
2023-05-22T12:05:10.261Z,1.00
2023-05-22T12:07:37.769Z,1.00
2023-05-22T12:10:07.314Z,1.00
2023-05-22T12:12:34.969Z,1.00
2023-05-22T12:15:06.680Z,1.00
2023-05-22T12:17:37.231Z,1.00
2023-05-22T12:20:05.512Z,1.00
2023-05-22T12:22:32.725Z,1.00
2023-05-22T12:24:59.784Z,1.00
2023-05-22T12:27:33.173Z,1.00
2023-05-22T12:30:10.412Z,1.00
2023-05-22T12:32:39.823Z,1.00
2023-05-22T12:35:07.767Z,1.00
2023-05-22T12:37:37.391Z,1.00
2023-05-22T12:40:05.310Z,1.00
2023-05-22T12:42:32.320Z,1.00
2023-05-22T12:45:01.809Z,1.00
2023-05-22T12:47:28.947Z,1.00
2023-05-22T12:49:56.023Z,1.00
2023-05-22T12:52:26.440Z,1.00
2023-05-22T12:54:56.653Z,1.00
2023-05-22T12:57:28.430Z,1.00
2023-05-22T12:59:55.823Z,1.00
2023-05-22T13:02:23.061Z,1.00
2023-05-22T13:04:50.262Z,1.00
2023-05-22T13:07:17.420Z,1.00
2023-05-22T13:09:44.576Z,1.00
2023-05-22T13:12:11.761Z,1.00
2023-05-22T13:14:40.520Z,1.00
2023-05-22T13:17:08.230Z,1.00
2023-05-22T13:19:35.458Z,1.00
2023-05-22T13:22:02.750Z,1.00
2023-05-22T13:24:30.472Z,1.00
2023-05-22T13:26:57.558Z,1.00
2023-05-22T13:29:25.494Z,1.00
2023-05-22T13:31:52.697Z,1.00
2023-05-22T13:34:20.635Z,1.00
2023-05-22T13:36:47.864Z,1.00
2023-05-22T13:39:15.006Z,1.00
2023-05-22T13:41:42.185Z,1.00
2023-05-22T13:44:09.298Z,1.00
2023-05-22T13:46:37.966Z,1.00
2023-05-22T13:49:07.274Z,1.00
2023-05-22T13:51:34.286Z,1.00
2023-05-22T13:54:03.148Z,1.00
2023-05-22T13:56:30.269Z,1.00
2023-05-22T13:58:57.443Z,1.00
2023-05-22T14:01:24.819Z,1.00
2023-05-22T14:03:54.821Z,1.00
2023-05-22T14:06:22.061Z,1.00
2023-05-22T14:08:49.077Z,1.00
2023-05-22T14:11:16.208Z,1.00
2023-05-22T14:13:43.838Z,1.00
2023-05-22T14:16:10.891Z,1.00
2023-05-22T14:18:41.406Z,1.00
2023-05-22T14:21:08.448Z,1.00
2023-05-22T14:23:35.578Z,1.00
2023-05-22T14:26:02.595Z,1.00
2023-05-22T14:28:31.756Z,1.00
2023-05-22T14:30:59.063Z,1.00
2023-05-22T14:33:26.458Z,1.00
2023-05-22T14:35:55.022Z,1.00
2023-05-22T14:38:22.122Z,1.00
2023-05-22T14:40:49.850Z,1.00
2023-05-22T14:43:16.915Z,1.00
2023-05-22T14:45:45.332Z,1.00
2023-05-22T14:48:13.119Z,1.00
2023-05-22T14:50:40.226Z,1.00
2023-05-22T14:53:07.271Z,1.00
2023-05-22T14:55:35.723Z,1.00
2023-05-22T14:58:02.756Z,1.00
2023-05-22T15:00:29.754Z,1.00
2023-05-22T15:02:57.272Z,1.00
2023-05-22T15:05:26.733Z,1.00
2023-05-22T15:07:54.997Z,1.00
2023-05-22T15:10:25.860Z,1.00
2023-05-22T15:12:53.273Z,1.00
2023-05-22T15:15:20.967Z,1.00
2023-05-22T15:17:48.087Z,1.00
2023-05-22T15:20:15.277Z,1.00
2023-05-22T15:22:42.274Z,1.00
2023-05-22T15:25:17.488Z,1.00
2023-05-22T15:27:44.615Z,1.00
2023-05-22T15:30:12.369Z,1.00
2023-05-22T15:32:39.632Z,1.00
2023-05-22T15:35:07.788Z,1.00
2023-05-22T15:37:36.555Z,1.00
2023-05-22T15:40:04.544Z,1.00
2023-05-22T15:42:31.749Z,1.00
2023-05-22T15:45:00.275Z,1.00
2023-05-22T15:47:27.563Z,1.00
2023-05-22T15:49:54.623Z,1.00
2023-05-22T15:52:23.453Z,1.00
2023-05-22T15:54:50.683Z,1.00
2023-05-22T15:57:17.793Z,1.00
2023-05-22T15:59:47.395Z,1.00
2023-05-22T16:02:14.710Z,1.00
2023-05-22T16:04:41.856Z,1.00
2023-05-22T16:07:08.885Z,1.00
2023-05-22T16:09:36.357Z,1.00
2023-05-22T16:12:05.135Z,1.00
2023-05-22T16:14:32.185Z,1.00
2023-05-22T16:16:59.369Z,1.00
2023-05-22T16:19:28.925Z,1.00
2023-05-22T16:21:56.345Z,1.00
2023-05-22T16:24:23.983Z,1.00
2023-05-22T16:26:50.975Z,1.00
2023-05-22T16:29:21.372Z,1.00
2023-05-22T16:31:52.164Z,1.00
2023-05-22T16:34:19.313Z,1.00
2023-05-22T16:36:46.862Z,1.00
2023-05-22T16:39:15.486Z,1.00
2023-05-22T16:41:42.806Z,1.00
2023-05-22T16:44:09.969Z,1.00
2023-05-22T16:46:36.927Z,1.00
2023-05-22T16:49:04.056Z,1.00
2023-05-22T16:51:31.252Z,1.00
2023-05-22T16:53:58.248Z,1.00
2023-05-22T16:56:26.046Z,1.00
2023-05-22T16:58:53.167Z,1.00
2023-05-22T17:01:21.918Z,1.00
2023-05-22T17:03:49.188Z,1.00
2023-05-22T17:06:18.285Z,1.00
2023-05-22T17:08:47.005Z,1.00
2023-05-22T17:11:14.139Z,1.00
2023-05-22T17:13:41.317Z,1.00
2023-05-22T17:16:08.463Z,1.00
2023-05-22T17:18:37.203Z,1.00
2023-05-22T17:21:04.576Z,1.00
2023-05-22T17:23:31.741Z,1.00
2023-05-22T17:25:59.024Z,1.00
2023-05-22T17:28:26.124Z,1.00
2023-05-22T17:30:53.195Z,1.00
2023-05-22T17:33:20.399Z,1.00
2023-05-22T17:35:47.704Z,1.00
2023-05-22T17:38:15.314Z,1.00
2023-05-22T17:40:45.887Z,1.00
2023-05-22T17:43:13.779Z,1.00
2023-05-22T17:45:41.830Z,1.00
2023-05-22T17:48:11.279Z,1.00
2023-05-22T17:50:40.147Z,1.00
2023-05-22T17:53:07.562Z,1.00
2023-05-22T17:55:34.704Z,1.00
2023-05-22T17:58:02.304Z,1.00
2023-05-22T18:00:32.026Z,1.00
2023-05-22T18:02:59.307Z,1.00
2023-05-22T18:05:26.566Z,1.00
2023-05-22T18:07:55.082Z,1.00
2023-05-22T18:10:24.155Z,1.00
2023-05-22T18:12:54.139Z,1.00
2023-05-22T18:15:21.764Z,1.00
2023-05-22T18:17:53.861Z,1.00
2023-05-22T18:20:21.154Z,1.00
2023-05-22T18:22:49.843Z,1.00
2023-05-22T18:25:17.002Z,1.00
2023-05-22T18:27:44.285Z,1.00
2023-05-22T18:30:13.194Z,1.00
2023-05-22T18:32:41.453Z,1.00
2023-05-22T18:35:11.545Z,1.00
2023-05-22T18:37:41.240Z,1.00
2023-05-22T18:40:10.311Z,1.00
2023-05-22T18:42:38.571Z,1.00
2023-05-22T18:45:07.861Z,1.00
2023-05-22T18:47:35.191Z,1.00
2023-05-22T18:50:02.911Z,1.00
2023-05-22T18:52:31.596Z,1.00
2023-05-22T18:54:59.456Z,1.00
2023-05-22T18:57:27.377Z,1.00
2023-05-22T18:59:54.630Z,1.00
2023-05-22T19:02:22.439Z,1.00
2023-05-22T19:04:53.404Z,1.00
2023-05-22T19:07:21.689Z,1.00
2023-05-22T19:09:50.696Z,1.00
2023-05-22T19:12:18.068Z,1.00
2023-05-22T19:14:45.189Z,1.00
2023-05-22T19:17:12.655Z,1.00
2023-05-22T19:19:39.896Z,1.00
2023-05-22T19:22:07.069Z,1.00
2023-05-22T19:24:36.519Z,1.00
2023-05-22T19:27:03.830Z,1.00
2023-05-22T19:29:30.920Z,1.00
2023-05-22T19:32:01.623Z,1.00
2023-05-22T19:34:29.727Z,1.00
2023-05-22T19:36:57.939Z,1.00
2023-05-22T19:39:25.911Z,1.00
2023-05-22T19:41:56.481Z,1.00
2023-05-22T19:44:24.757Z,1.00
2023-05-22T19:46:51.763Z,1.00
2023-05-22T19:49:19.064Z,1.00
2023-05-22T19:51:48.973Z,1.00
2023-05-22T19:54:16.657Z,1.00
2023-05-22T19:56:43.800Z,1.70
2023-05-22T19:59:13.605Z,2.30
2023-05-22T20:01:40.741Z,2.50
2023-05-22T20:04:08.267Z,2.70
2023-05-22T20:06:36.446Z,4.00
2023-05-22T20:09:05.794Z,3.30
2023-05-22T20:11:33.075Z,4.20
2023-05-22T20:14:02.559Z,4.00
2023-05-22T20:16:31.174Z,4.90
2023-05-22T20:18:58.426Z,5.30
2023-05-22T20:21:25.696Z,5.90
2023-05-22T20:23:53.771Z,5.80
2023-05-22T20:26:21.789Z,6.20
2023-05-22T20:28:48.944Z,6.30
2023-05-22T20:31:16.206Z,7.80
2023-05-22T20:33:43.438Z,7.90
2023-05-22T20:36:10.774Z,8.80
2023-05-22T20:38:40.740Z,8.60
2023-05-22T20:41:09.654Z,8.70
2023-05-22T20:43:37.333Z,10.00
2023-05-22T20:46:04.465Z,10.10
2023-05-22T20:48:31.555Z,10.40
2023-05-22T20:50:58.720Z,10.80
2023-05-22T20:53:26.053Z,10.90
2023-05-22T20:55:53.453Z,12.00
2023-05-22T20:58:20.780Z,12.40
2023-05-22T21:00:49.526Z,12.70
2023-05-22T21:03:17.878Z,14.00
2023-05-22T21:05:44.949Z,13.90
2023-05-22T21:08:11.949Z,14.10
2023-05-22T21:10:39.050Z,15.30
2023-05-22T21:13:06.767Z,15.90
2023-05-22T21:15:33.683Z,16.90
2023-05-22T21:18:00.776Z,19.70
2023-05-22T21:20:27.918Z,20.50
2023-05-22T21:22:55.001Z,23.40
2023-05-22T21:25:21.966Z,23.10
2023-05-22T21:27:49.330Z,24.30
2023-05-22T21:30:16.434Z,28.70
2023-05-22T21:32:43.560Z,34.60
2023-05-22T21:35:10.734Z,33.50
2023-05-22T21:37:37.869Z,37.40
2023-05-22T21:40:05.400Z,42.80
2023-05-22T21:42:45.038Z,44.50
2023-05-22T21:45:13.995Z,44.40
2023-05-22T21:47:42.413Z,44.00
2023-05-22T21:50:10.125Z,44.40
2023-05-22T21:52:37.141Z,47.80
2023-05-22T21:55:04.591Z,48.60
2023-05-22T21:57:31.691Z,49.00
2023-05-22T21:59:58.796Z,50.30
2023-05-22T22:02:26.074Z,48.60
2023-05-22T22:04:53.076Z,47.10
2023-05-22T22:07:20.241Z,47.00
2023-05-22T22:09:47.213Z,46.60
2023-05-22T22:12:14.203Z,46.80
2023-05-22T22:14:41.150Z,49.30
2023-05-22T22:17:09.143Z,48.80
2023-05-22T22:19:36.308Z,47.50
2023-05-22T22:22:03.588Z,44.70
2023-05-22T22:24:30.643Z,47.60
2023-05-22T22:26:57.594Z,46.80
2023-05-22T22:29:24.580Z,47.60
2023-05-22T22:31:52.939Z,45.30
2023-05-22T22:34:19.956Z,46.30
2023-05-22T22:36:47.456Z,47.70
2023-05-22T22:39:14.543Z,46.60
2023-05-22T22:41:43.276Z,48.00
2023-05-22T22:44:10.684Z,47.80
2023-05-22T22:46:38.013Z,49.00
2023-05-22T22:49:05.237Z,48.50
2023-05-22T22:51:32.267Z,48.20
2023-05-22T22:53:59.281Z,48.50
2023-05-22T22:56:29.432Z,48.80
2023-05-22T22:58:57.436Z,48.80
2023-05-22T23:01:24.921Z,49.70
2023-05-22T23:03:52.233Z,49.50
2023-05-22T23:06:19.690Z,48.80
2023-05-22T23:08:46.738Z,50.10
2023-05-22T23:11:13.792Z,47.40
2023-05-22T23:13:43.190Z,48.30
2023-05-22T23:16:10.442Z,49.20
2023-05-22T23:18:37.647Z,50.80
2023-05-22T23:21:04.737Z,50.40
2023-05-22T23:23:32.041Z,50.90
2023-05-22T23:25:59.236Z,51.00
2023-05-22T23:28:26.325Z,50.90
2023-05-22T23:30:53.317Z,50.90
2023-05-22T23:33:21.472Z,51.10
2023-05-22T23:35:48.455Z,51.40
2023-05-22T23:38:15.498Z,51.00
2023-05-22T23:40:42.672Z,51.00
2023-05-22T23:43:09.652Z,50.90
2023-05-22T23:45:36.688Z,51.00
2023-05-22T23:48:04.240Z,49.40
2023-05-22T23:50:31.379Z,47.90
2023-05-22T23:52:58.345Z,49.00
2023-05-22T23:55:25.349Z,49.00
2023-05-22T23:57:52.321Z,47.60
